sensor_id;sensor_type;location;lat;lon;timestamp;pressure;altitude;pressure_sealevel;temperature;humidity
30636;BME280;17400;52.392;9.750;2022-12-07T00:01:17;100737.78;;;4.42;100.00
30636;BME280;17400;52.392;9.750;2022-12-07T00:03:47;100733.28;;;4.42;100.00
30636;BME280;17400;52.392;9.750;2022-12-07T00:06:16;100733.94;;;4.44;100.00
30636;BME280;17400;52.392;9.750;2022-12-07T00:08:46;100720.53;;;4.44;100.00
30636;BME280;17400;52.392;9.750;2022-12-07T00:11:15;100725.44;;;4.49;100.00
30636;BME280;17400;52.392;9.750;2022-12-07T00:13:44;100719.38;;;4.47;100.00
30636;BME280;17400;52.392;9.750;2022-12-07T00:16:14;100717.41;;;4.49;100.00
30636;BME280;17400;52.392;9.750;2022-12-07T00:18:42;100709.19;;;4.50;100.00
30636;BME280;17400;52.392;9.750;2022-12-07T00:21:12;100700.00;;;4.53;100.00
30636;BME280;17400;52.392;9.750;2022-12-07T00:23:42;100699.63;;;4.48;100.00
30636;BME280;17400;52.392;9.750;2022-12-07T00:26:14;100696.28;;;4.46;100.00
30636;BME280;17400;52.392;9.750;2022-12-07T00:28:44;100699.16;;;4.53;100.00
30636;BME280;17400;52.392;9.750;2022-12-07T00:31:14;100693.31;;;4.57;100.00
30636;BME280;17400;52.392;9.750;2022-12-07T00:33:43;100697.53;;;4.60;100.00
30636;BME280;17400;52.392;9.750;2022-12-07T00:36:13;100689.16;;;4.63;100.00
30636;BME280;17400;52.392;9.750;2022-12-07T00:38:41;100692.38;;;4.66;100.00
30636;BME280;17400;52.392;9.750;2022-12-07T00:41:12;100687.84;;;4.67;100.00
30636;BME280;17400;52.392;9.750;2022-12-07T00:43:42;100690.22;;;4.70;100.00
30636;BME280;17400;52.392;9.750;2022-12-07T00:46:10;100687.03;;;4.75;100.00
30636;BME280;17400;52.392;9.750;2022-12-07T00:48:38;100684.34;;;4.75;100.00
30636;BME280;17400;52.392;9.750;2022-12-07T00:51:07;100688.88;;;4.74;100.00
30636;BME280;17400;52.392;9.750;2022-12-07T00:53:35;100677.34;;;4.74;100.00
30636;BME280;17400;52.392;9.750;2022-12-07T00:56:08;100680.84;;;4.74;100.00
30636;BME280;17400;52.392;9.750;2022-12-07T00:58:38;100672.59;;;4.67;100.00
30636;BME280;17400;52.392;9.750;2022-12-07T01:01:07;100672.94;;;4.64;100.00
30636;BME280;17400;52.392;9.750;2022-12-07T01:03:35;100668.72;;;4.62;100.00
30636;BME280;17400;52.392;9.750;2022-12-07T01:06:04;100671.41;;;4.62;100.00
30636;BME280;17400;52.392;9.750;2022-12-07T01:08:31;100672.41;;;4.61;100.00
30636;BME280;17400;52.392;9.750;2022-12-07T01:11:00;100671.53;;;4.60;100.00
30636;BME280;17400;52.392;9.750;2022-12-07T01:13:28;100675.75;;;4.63;100.00
30636;BME280;17400;52.392;9.750;2022-12-07T01:15:59;100672.41;;;4.61;100.00
30636;BME280;17400;52.392;9.750;2022-12-07T01:18:28;100676.59;;;4.63;100.00
30636;BME280;17400;52.392;9.750;2022-12-07T01:20:58;100683.31;;;4.67;100.00
30636;BME280;17400;52.392;9.750;2022-12-07T01:23:26;100671.91;;;4.65;100.00
30636;BME280;17400;52.392;9.750;2022-12-07T01:25:55;100670.91;;;4.66;100.00
30636;BME280;17400;52.392;9.750;2022-12-07T01:28:23;100677.44;;;4.64;100.00
30636;BME280;17400;52.392;9.750;2022-12-07T01:30:58;100665.72;;;4.65;100.00
30636;BME280;17400;52.392;9.750;2022-12-07T01:33:27;100673.59;;;4.66;100.00
30636;BME280;17400;52.392;9.750;2022-12-07T01:36:00;100669.75;;;4.69;100.00
30636;BME280;17400;52.392;9.750;2022-12-07T01:38:29;100665.22;;;4.70;100.00
30636;BME280;17400;52.392;9.750;2022-12-07T01:40:57;100657.16;;;4.70;100.00
30636;BME280;17400;52.392;9.750;2022-12-07T01:43:28;100658.19;;;4.69;100.00
30636;BME280;17400;52.392;9.750;2022-12-07T01:45:57;100645.09;;;4.65;100.00
30636;BME280;17400;52.392;9.750;2022-12-07T01:48:27;100649.28;;;4.68;100.00
30636;BME280;17400;52.392;9.750;2022-12-07T01:51:00;100643.94;;;4.68;100.00
30636;BME280;17400;52.392;9.750;2022-12-07T01:53:30;100641.94;;;4.70;100.00
30636;BME280;17400;52.392;9.750;2022-12-07T01:56:01;100637.94;;;4.74;100.00
30636;BME280;17400;52.392;9.750;2022-12-07T01:58:29;100643.31;;;4.74;100.00
30636;BME280;17400;52.392;9.750;2022-12-07T02:00:58;100642.59;;;4.72;100.00
30636;BME280;17400;52.392;9.750;2022-12-07T02:03:30;100652.13;;;4.66;100.00
30636;BME280;17400;52.392;9.750;2022-12-07T02:06:00;100654.63;;;4.60;100.00
30636;BME280;17400;52.392;9.750;2022-12-07T02:08:28;100649.25;;;4.60;100.00
30636;BME280;17400;52.392;9.750;2022-12-07T02:10:56;100643.91;;;4.60;100.00
30636;BME280;17400;52.392;9.750;2022-12-07T02:13:25;100648.72;;;4.56;100.00
30636;BME280;17400;52.392;9.750;2022-12-07T02:16:09;100647.41;;;4.60;100.00
30636;BME280;17400;52.392;9.750;2022-12-07T02:18:47;100638.88;;;4.57;100.00
30636;BME280;17400;52.392;9.750;2022-12-07T02:21:25;100637.81;;;4.49;100.00
30636;BME280;17400;52.392;9.750;2022-12-07T02:24:25;100634.91;;;4.43;100.00
30636;BME280;17400;52.392;9.750;2022-12-07T02:27:11;100640.47;;;4.49;100.00
30636;BME280;17400;52.392;9.750;2022-12-07T02:29:46;100631.63;;;4.49;100.00
30636;BME280;17400;52.392;9.750;2022-12-07T02:32:19;100628.75;;;4.50;100.00
30636;BME280;17400;52.392;9.750;2022-12-07T02:34:55;100625.75;;;4.54;100.00
30636;BME280;17400;52.392;9.750;2022-12-07T02:37:33;100632.56;;;4.40;100.00
30636;BME280;17400;52.392;9.750;2022-12-07T02:40:08;100632.06;;;4.44;100.00
30636;BME280;17400;52.392;9.750;2022-12-07T02:42:40;100625.41;;;4.48;100.00
30636;BME280;17400;52.392;9.750;2022-12-07T02:45:13;100614.34;;;4.43;100.00
30636;BME280;17400;52.392;9.750;2022-12-07T02:47:43;100625.88;;;4.44;100.00
30636;BME280;17400;52.392;9.750;2022-12-07T02:50:11;100628.25;;;4.47;100.00
30636;BME280;17400;52.392;9.750;2022-12-07T02:52:40;100627.78;;;4.52;100.00
30636;BME280;17400;52.392;9.750;2022-12-07T02:55:08;100622.88;;;4.47;100.00
30636;BME280;17400;52.392;9.750;2022-12-07T02:57:45;100617.69;;;4.45;100.00
30636;BME280;17400;52.392;9.750;2022-12-07T03:00:20;100613.63;;;4.41;100.00
30636;BME280;17400;52.392;9.750;2022-12-07T03:02:53;100619.19;;;4.48;100.00
30636;BME280;17400;52.392;9.750;2022-12-07T03:05:36;100621.88;;;4.48;100.00
30636;BME280;17400;52.392;9.750;2022-12-07T03:08:13;100622.72;;;4.48;100.00
30636;BME280;17400;52.392;9.750;2022-12-07T03:10:50;100623.91;;;4.46;100.00
30636;BME280;17400;52.392;9.750;2022-12-07T03:13:25;100624.03;;;4.44;100.00
30636;BME280;17400;52.392;9.750;2022-12-07T03:16:01;100612.81;;;4.41;100.00
30636;BME280;17400;52.392;9.750;2022-12-07T03:18:33;100618.00;;;4.42;100.00
30636;BME280;17400;52.392;9.750;2022-12-07T03:21:09;100613.31;;;4.44;100.00
30636;BME280;17400;52.392;9.750;2022-12-07T03:23:40;100603.44;;;4.45;100.00
30636;BME280;17400;52.392;9.750;2022-12-07T03:26:12;100602.94;;;4.49;100.00
30636;BME280;17400;52.392;9.750;2022-12-07T03:28:45;100605.34;;;4.53;100.00
30636;BME280;17400;52.392;9.750;2022-12-07T03:31:20;100604.81;;;4.49;100.00
30636;BME280;17400;52.392;9.750;2022-12-07T03:33:52;100599.72;;;4.38;100.00
30636;BME280;17400;52.392;9.750;2022-12-07T03:36:24;100600.41;;;4.40;100.00
30636;BME280;17400;52.392;9.750;2022-12-07T03:38:57;100600.94;;;4.43;100.00
30636;BME280;17400;52.392;9.750;2022-12-07T03:41:30;100603.75;;;4.42;100.00
30636;BME280;17400;52.392;9.750;2022-12-07T03:43:58;100605.56;;;4.33;100.00
30636;BME280;17400;52.392;9.750;2022-12-07T03:46:36;100606.56;;;4.32;100.00
30636;BME280;17400;52.392;9.750;2022-12-07T03:49:08;100603.25;;;4.38;100.00
30636;BME280;17400;52.392;9.750;2022-12-07T03:51:43;100601.22;;;4.40;100.00
30636;BME280;17400;52.392;9.750;2022-12-07T03:54:17;100604.97;;;4.47;100.00
30636;BME280;17400;52.392;9.750;2022-12-07T03:56:46;100604.59;;;4.42;100.00
30636;BME280;17400;52.392;9.750;2022-12-07T03:59:16;100619.19;;;4.48;100.00
30636;BME280;17400;52.392;9.750;2022-12-07T04:01:52;100617.72;;;4.54;100.00
30636;BME280;17400;52.392;9.750;2022-12-07T04:04:21;100614.38;;;4.52;100.00
30636;BME280;17400;52.392;9.750;2022-12-07T04:06:48;100619.91;;;4.50;100.00
30636;BME280;17400;52.392;9.750;2022-12-07T04:09:16;100618.84;;;4.43;100.00
30636;BME280;17400;52.392;9.750;2022-12-07T04:11:44;100622.38;;;4.43;100.00
30636;BME280;17400;52.392;9.750;2022-12-07T04:14:11;100617.69;;;4.45;100.00
30636;BME280;17400;52.392;9.750;2022-12-07T04:16:47;100620.34;;;4.45;100.00
30636;BME280;17400;52.392;9.750;2022-12-07T04:19:16;100616.84;;;4.45;100.00
30636;BME280;17400;52.392;9.750;2022-12-07T04:21:45;100623.84;;;4.38;100.00
30636;BME280;17400;52.392;9.750;2022-12-07T04:24:13;100622.69;;;4.40;100.00
30636;BME280;17400;52.392;9.750;2022-12-07T04:26:43;100620.69;;;4.42;100.00
30636;BME280;17400;52.392;9.750;2022-12-07T04:29:11;100614.97;;;4.37;100.00
30636;BME280;17400;52.392;9.750;2022-12-07T04:31:39;100618.28;;;4.31;100.00
30636;BME280;17400;52.392;9.750;2022-12-07T04:34:08;100611.75;;;4.33;100.00
30636;BME280;17400;52.392;9.750;2022-12-07T04:36:37;100609.75;;;4.36;100.00
30636;BME280;17400;52.392;9.750;2022-12-07T04:39:06;100616.00;;;4.44;100.00
30636;BME280;17400;52.392;9.750;2022-12-07T04:41:34;100614.47;;;4.42;100.00
30636;BME280;17400;52.392;9.750;2022-12-07T04:44:03;100608.47;;;4.48;100.00
30636;BME280;17400;52.392;9.750;2022-12-07T04:46:33;100606.16;;;4.53;100.00
30636;BME280;17400;52.392;9.750;2022-12-07T04:49:01;100605.44;;;4.43;100.00
30636;BME280;17400;52.392;9.750;2022-12-07T04:51:30;100602.59;;;4.44;100.00
30636;BME280;17400;52.392;9.750;2022-12-07T04:53:58;100601.13;;;4.50;100.00
30636;BME280;17400;52.392;9.750;2022-12-07T04:56:26;100595.41;;;4.45;100.00
30636;BME280;17400;52.392;9.750;2022-12-07T04:58:54;100593.47;;;4.29;100.00
30636;BME280;17400;52.392;9.750;2022-12-07T05:01:23;100595.84;;;4.32;100.00
30636;BME280;17400;52.392;9.750;2022-12-07T05:03:51;100592.53;;;4.38;100.00
30636;BME280;17400;52.392;9.750;2022-12-07T05:06:19;100592.19;;;4.41;100.00
30636;BME280;17400;52.392;9.750;2022-12-07T05:08:48;100595.56;;;4.43;100.00
30636;BME280;17400;52.392;9.750;2022-12-07T05:11:16;100602.75;;;4.43;100.00
30636;BME280;17400;52.392;9.750;2022-12-07T05:13:57;100600.25;;;4.41;100.00
30636;BME280;17400;52.392;9.750;2022-12-07T05:16:25;100598.38;;;4.42;100.00
30636;BME280;17400;52.392;9.750;2022-12-07T05:18:53;100599.28;;;4.50;100.00
30636;BME280;17400;52.392;9.750;2022-12-07T05:21:21;100594.63;;;4.53;100.00
30636;BME280;17400;52.392;9.750;2022-12-07T05:23:50;100596.28;;;4.54;100.00
30636;BME280;17400;52.392;9.750;2022-12-07T05:26:18;100603.66;;;4.52;100.00
30636;BME280;17400;52.392;9.750;2022-12-07T05:28:50;100600.94;;;4.43;100.00
30636;BME280;17400;52.392;9.750;2022-12-07T05:31:18;100606.63;;;4.48;100.00
30636;BME280;17400;52.392;9.750;2022-12-07T05:33:46;100602.66;;;4.53;100.00
30636;BME280;17400;52.392;9.750;2022-12-07T05:36:14;100601.97;;;4.50;100.00
30636;BME280;17400;52.392;9.750;2022-12-07T05:38:42;100596.94;;;4.47;100.00
30636;BME280;17400;52.392;9.750;2022-12-07T05:41:12;100602.94;;;4.49;100.00
30636;BME280;17400;52.392;9.750;2022-12-07T05:43:55;100597.75;;;4.48;100.00
30636;BME280;17400;52.392;9.750;2022-12-07T05:46:23;100603.63;;;4.43;100.00
30636;BME280;17400;52.392;9.750;2022-12-07T05:48:50;100600.41;;;4.40;100.00
30636;BME280;17400;52.392;9.750;2022-12-07T05:51:18;100610.38;;;4.29;100.00
30636;BME280;17400;52.392;9.750;2022-12-07T05:53:46;100608.53;;;4.30;100.00
30636;BME280;17400;52.392;9.750;2022-12-07T05:56:15;100602.19;;;4.31;100.00
30636;BME280;17400;52.392;9.750;2022-12-07T05:58:43;100599.31;;;4.24;100.00
30636;BME280;17400;52.392;9.750;2022-12-07T06:01:28;100591.91;;;4.18;100.00
30636;BME280;17400;52.392;9.750;2022-12-07T06:03:56;100598.78;;;4.21;100.00
30636;BME280;17400;52.392;9.750;2022-12-07T06:06:23;100602.84;;;4.25;100.00
30636;BME280;17400;52.392;9.750;2022-12-07T06:08:51;100603.84;;;4.24;100.00
30636;BME280;17400;52.392;9.750;2022-12-07T06:11:20;100605.31;;;4.18;100.00
30636;BME280;17400;52.392;9.750;2022-12-07T06:14:06;100606.47;;;4.15;100.00
30636;BME280;17400;52.392;9.750;2022-12-07T06:16:35;100602.09;;;4.14;100.00
30636;BME280;17400;52.392;9.750;2022-12-07T06:19:03;100597.78;;;4.22;100.00
30636;BME280;17400;52.392;9.750;2022-12-07T06:21:31;100600.47;;;4.22;100.00
30636;BME280;17400;52.392;9.750;2022-12-07T06:23:59;100596.31;;;4.27;100.00
30636;BME280;17400;52.392;9.750;2022-12-07T06:26:28;100606.50;;;4.24;100.00
30636;BME280;17400;52.392;9.750;2022-12-07T06:28:56;100601.97;;;4.24;100.00
30636;BME280;17400;52.392;9.750;2022-12-07T06:31:24;100596.09;;;4.21;100.00
30636;BME280;17400;52.392;9.750;2022-12-07T06:33:57;100607.84;;;4.20;100.00
30636;BME280;17400;52.392;9.750;2022-12-07T06:36:25;100600.00;;;4.26;100.00
30636;BME280;17400;52.392;9.750;2022-12-07T06:38:53;100597.03;;;4.11;100.00
30636;BME280;17400;52.392;9.750;2022-12-07T06:41:21;100595.78;;;3.97;100.00
30636;BME280;17400;52.392;9.750;2022-12-07T06:43:51;100598.34;;;4.07;100.00
30636;BME280;17400;52.392;9.750;2022-12-07T06:46:22;100611.28;;;4.12;100.00
30636;BME280;17400;52.392;9.750;2022-12-07T06:48:50;100597.38;;;4.08;100.00
30636;BME280;17400;52.392;9.750;2022-12-07T06:51:18;100599.06;;;4.09;100.00
30636;BME280;17400;52.392;9.750;2022-12-07T06:53:46;100599.06;;;4.09;100.00
30636;BME280;17400;52.392;9.750;2022-12-07T06:56:14;100600.44;;;3.95;100.00
30636;BME280;17400;52.392;9.750;2022-12-07T06:58:42;100597.66;;;3.97;100.00
30636;BME280;17400;52.392;9.750;2022-12-07T07:01:13;100609.19;;;3.97;100.00
30636;BME280;17400;52.392;9.750;2022-12-07T07:03:41;100606.84;;;3.94;100.00
30636;BME280;17400;52.392;9.750;2022-12-07T07:06:09;100610.00;;;3.98;100.00
30636;BME280;17400;52.392;9.750;2022-12-07T07:08:49;100605.72;;;4.05;100.00
30636;BME280;17400;52.392;9.750;2022-12-07T07:11:17;100613.75;;;4.05;100.00
30636;BME280;17400;52.392;9.750;2022-12-07T07:13:45;100616.44;;;4.05;100.00
30636;BME280;17400;52.392;9.750;2022-12-07T07:16:14;100616.06;;;4.00;100.00
30636;BME280;17400;52.392;9.750;2022-12-07T07:18:43;100609.63;;;3.93;100.00
30636;BME280;17400;52.392;9.750;2022-12-07T07:21:13;100620.06;;;3.96;100.00
30636;BME280;17400;52.392;9.750;2022-12-07T07:23:41;100619.78;;;4.07;100.00
30636;BME280;17400;52.392;9.750;2022-12-07T07:26:09;100622.31;;;4.09;100.00
30636;BME280;17400;52.392;9.750;2022-12-07T07:28:37;100627.66;;;4.09;100.00
30636;BME280;17400;52.392;9.750;2022-12-07T07:31:04;100629.88;;;4.13;100.00
30636;BME280;17400;52.392;9.750;2022-12-07T07:33:33;100627.53;;;4.10;100.00
30636;BME280;17400;52.392;9.750;2022-12-07T07:36:01;100623.25;;;3.99;100.00
30636;BME280;17400;52.392;9.750;2022-12-07T07:38:29;100625.47;;;4.04;100.00
30636;BME280;17400;52.392;9.750;2022-12-07T07:40:56;100638.25;;;4.10;100.00
30636;BME280;17400;52.392;9.750;2022-12-07T07:43:24;100634.91;;;4.16;100.00
30636;BME280;17400;52.392;9.750;2022-12-07T07:45:52;100636.59;;;4.17;100.00
30636;BME280;17400;52.392;9.750;2022-12-07T07:48:20;100637.81;;;4.23;100.00
30636;BME280;17400;52.392;9.750;2022-12-07T07:50:50;100635.00;;;4.25;100.00
30636;BME280;17400;52.392;9.750;2022-12-07T07:53:18;100635.41;;;4.12;100.00
30636;BME280;17400;52.392;9.750;2022-12-07T07:55:50;100639.28;;;4.17;100.00
30636;BME280;17400;52.392;9.750;2022-12-07T07:58:18;100632.63;;;4.22;100.00
30636;BME280;17400;52.392;9.750;2022-12-07T08:00:46;100634.78;;;4.18;100.00
30636;BME280;17400;52.392;9.750;2022-12-07T08:03:14;100635.63;;;4.19;100.00
30636;BME280;17400;52.392;9.750;2022-12-07T08:05:42;100637.31;;;4.20;100.00
30636;BME280;17400;52.392;9.750;2022-12-07T08:08:11;100640.38;;;4.07;100.00
30636;BME280;17400;52.392;9.750;2022-12-07T08:10:39;100636.56;;;4.09;100.00
30636;BME280;17400;52.392;9.750;2022-12-07T08:13:06;100644.97;;;4.14;100.00
30636;BME280;17400;52.392;9.750;2022-12-07T08:15:43;100645.19;;;4.21;100.00
30636;BME280;17400;52.392;9.750;2022-12-07T08:18:12;100648.03;;;4.20;100.00
30636;BME280;17400;52.392;9.750;2022-12-07T08:20:40;100637.47;;;4.18;100.00
30636;BME280;17400;52.392;9.750;2022-12-07T08:23:10;100642.50;;;4.21;100.00
30636;BME280;17400;52.392;9.750;2022-12-07T08:25:39;100638.03;;;4.30;100.00
30636;BME280;17400;52.392;9.750;2022-12-07T08:28:06;100639.72;;;4.31;100.00
30636;BME280;17400;52.392;9.750;2022-12-07T08:30:34;100635.66;;;4.27;100.00
30636;BME280;17400;52.392;9.750;2022-12-07T08:33:02;100639.03;;;4.29;100.00
30636;BME280;17400;52.392;9.750;2022-12-07T08:35:32;100637.41;;;4.36;100.00
30636;BME280;17400;52.392;9.750;2022-12-07T08:38:00;100636.88;;;4.32;100.00
30636;BME280;17400;52.392;9.750;2022-12-07T08:40:30;100645.63;;;4.16;100.00
30636;BME280;17400;52.392;9.750;2022-12-07T08:42:58;100638.34;;;4.27;100.00
30636;BME280;17400;52.392;9.750;2022-12-07T08:45:25;100645.19;;;4.21;100.00
30636;BME280;17400;52.392;9.750;2022-12-07T08:47:57;100647.69;;;4.23;100.00
30636;BME280;17400;52.392;9.750;2022-12-07T08:50:28;100647.09;;;4.29;100.00
30636;BME280;17400;52.392;9.750;2022-12-07T08:52:58;100649.28;;;4.33;100.00
30636;BME280;17400;52.392;9.750;2022-12-07T08:55:27;100650.44;;;4.31;100.00
30636;BME280;17400;52.392;9.750;2022-12-07T08:57:58;100656.53;;;4.41;100.00
30636;BME280;17400;52.392;9.750;2022-12-07T09:00:26;100655.91;;;4.47;100.00
30636;BME280;17400;52.392;9.750;2022-12-07T09:02:54;100655.56;;;4.50;100.00
30636;BME280;17400;52.392;9.750;2022-12-07T09:05:22;100656.41;;;4.51;100.00
30636;BME280;17400;52.392;9.750;2022-12-07T09:07:54;100653.72;;;4.51;100.00
30636;BME280;17400;52.392;9.750;2022-12-07T09:10:23;100654.47;;;4.61;100.00
30636;BME280;17400;52.392;9.750;2022-12-07T09:12:50;100663.09;;;4.81;100.00
30636;BME280;17400;52.392;9.750;2022-12-07T09:15:19;100659.63;;;4.89;100.00
30636;BME280;17400;52.392;9.750;2022-12-07T09:17:47;100659.41;;;4.82;100.00
30636;BME280;17400;52.392;9.750;2022-12-07T09:20:15;100657.34;;;4.68;100.00
30636;BME280;17400;52.392;9.750;2022-12-07T09:22:43;100655.34;;;4.70;100.00
30636;BME280;17400;52.392;9.750;2022-12-07T09:25:10;100645.63;;;4.69;100.00
30636;BME280;17400;52.392;9.750;2022-12-07T09:27:38;100651.59;;;4.63;100.00
30636;BME280;17400;52.392;9.750;2022-12-07T09:30:07;100645.38;;;4.54;100.00
30636;BME280;17400;52.392;9.750;2022-12-07T09:32:36;100645.47;;;4.44;100.00
30636;BME280;17400;52.392;9.750;2022-12-07T09:35:04;100645.69;;;4.51;100.00
30636;BME280;17400;52.392;9.750;2022-12-07T09:37:32;100639.69;;;4.57;100.00
30636;BME280;17400;52.392;9.750;2022-12-07T09:40:04;100640.19;;;4.53;100.00
30636;BME280;17400;52.392;9.750;2022-12-07T09:42:34;100645.56;;;4.53;100.00
30636;BME280;17400;52.392;9.750;2022-12-07T09:45:05;100638.53;;;4.60;100.00
30636;BME280;17400;52.392;9.750;2022-12-07T09:47:34;100640.31;;;4.51;100.00
30636;BME280;17400;52.392;9.750;2022-12-07T09:50:07;100635.38;;;4.64;100.00
30636;BME280;17400;52.392;9.750;2022-12-07T09:52:39;100643.28;;;4.66;100.00
30636;BME280;17400;52.392;9.750;2022-12-07T09:55:11;100635.41;;;4.73;100.00
30636;BME280;17400;52.392;9.750;2022-12-07T09:57:40;100634.81;;;4.53;100.00
30636;BME280;17400;52.392;9.750;2022-12-07T10:00:13;100635.19;;;4.58;100.00
30636;BME280;17400;52.392;9.750;2022-12-07T10:02:43;100637.38;;;4.62;100.00
30636;BME280;17400;52.392;9.750;2022-12-07T10:05:15;100633.16;;;4.60;100.00
30636;BME280;17400;52.392;9.750;2022-12-07T10:07:50;100635.53;;;4.63;100.00
30636;BME280;17400;52.392;9.750;2022-12-07T10:10:22;100638.81;;;4.83;100.00
30636;BME280;17400;52.392;9.750;2022-12-07T10:12:56;100627.13;;;4.92;100.00
30636;BME280;17400;52.392;9.750;2022-12-07T10:15:41;100627.31;;;4.99;100.00
30636;BME280;17400;52.392;9.750;2022-12-07T10:18:27;100631.66;;;5.00;100.00
30636;BME280;17400;52.392;9.750;2022-12-07T10:21:12;100625.28;;;5.01;100.00
30636;BME280;17400;52.392;9.750;2022-12-07T10:23:41;100629.31;;;4.97;100.00
30636;BME280;17400;52.392;9.750;2022-12-07T10:26:21;100626.25;;;4.92;100.00
30636;BME280;17400;52.392;9.750;2022-12-07T10:28:54;100631.06;;;4.80;100.00
30636;BME280;17400;52.392;9.750;2022-12-07T10:31:23;100629.38;;;4.79;100.00
30636;BME280;17400;52.392;9.750;2022-12-07T10:33:52;100626.69;;;4.71;100.00
30636;BME280;17400;52.392;9.750;2022-12-07T10:36:24;100628.41;;;4.80;100.00
30636;BME280;17400;52.392;9.750;2022-12-07T10:38:59;100631.94;;;4.80;100.00
30636;BME280;17400;52.392;9.750;2022-12-07T10:41:27;100627.94;;;4.84;100.00
30636;BME280;17400;52.392;9.750;2022-12-07T10:43:56;100626.22;;;4.75;100.00
30636;BME280;17400;52.392;9.750;2022-12-07T10:46:42;100613.53;;;4.86;100.00
30636;BME280;17400;52.392;9.750;2022-12-07T10:52:26;100615.97;;;4.79;100.00
30636;BME280;17400;52.392;9.750;2022-12-07T10:55:08;100610.28;;;4.74;100.00
30636;BME280;17400;52.392;9.750;2022-12-07T10:57:56;100616.66;;;4.73;100.00
30636;BME280;17400;52.392;9.750;2022-12-07T11:00:31;100615.13;;;4.70;100.00
30636;BME280;17400;52.392;9.750;2022-12-07T11:03:25;100608.78;;;4.79;100.00
30636;BME280;17400;52.392;9.750;2022-12-07T11:06:06;100601.72;;;4.70;100.00
30636;BME280;17400;52.392;9.750;2022-12-07T11:08:50;100605.41;;;4.77;100.00
30636;BME280;17400;52.392;9.750;2022-12-07T11:11:27;100613.00;;;4.82;100.00
30636;BME280;17400;52.392;9.750;2022-12-07T11:14:05;100618.47;;;4.72;100.00
30636;BME280;17400;52.392;9.750;2022-12-07T11:16:49;100615.28;;;4.69;100.00
30636;BME280;17400;52.392;9.750;2022-12-07T11:19:32;100615.28;;;4.69;100.00
30636;BME280;17400;52.392;9.750;2022-12-07T11:22:05;100609.56;;;4.63;100.00
30636;BME280;17400;52.392;9.750;2022-12-07T11:24:41;100607.00;;;4.54;100.00
30636;BME280;17400;52.392;9.750;2022-12-07T11:27:22;100599.97;;;4.53;100.00
30636;BME280;17400;52.392;9.750;2022-12-07T11:30:01;100597.22;;;4.44;100.00
30636;BME280;17400;52.392;9.750;2022-12-07T11:32:42;100588.56;;;4.50;100.00
30636;BME280;17400;52.392;9.750;2022-12-07T11:35:19;100593.53;;;4.37;100.00
30636;BME280;17400;52.392;9.750;2022-12-07T11:37:51;100599.97;;;4.53;100.00
30636;BME280;17400;52.392;9.750;2022-12-07T11:40:28;100597.56;;;4.41;100.00
30636;BME280;17400;52.392;9.750;2022-12-07T11:43:03;100601.41;;;4.39;100.00
30636;BME280;17400;52.392;9.750;2022-12-07T11:45:33;100586.50;;;4.44;100.00
30636;BME280;17400;52.392;9.750;2022-12-07T11:48:03;100590.53;;;4.48;100.00
30636;BME280;17400;52.392;9.750;2022-12-07T11:50:38;100586.38;;;4.46;100.00
30636;BME280;17400;52.392;9.750;2022-12-07T11:53:14;100593.13;;;4.58;100.00
30636;BME280;17400;52.392;9.750;2022-12-07T11:55:49;100584.28;;;4.66;100.00
30636;BME280;17400;52.392;9.750;2022-12-07T11:58:39;100588.00;;;4.81;100.00
30636;BME280;17400;52.392;9.750;2022-12-07T12:01:26;100576.63;;;4.88;100.00
30636;BME280;17400;52.392;9.750;2022-12-07T12:04:01;100577.28;;;4.81;100.00
30636;BME280;17400;52.392;9.750;2022-12-07T12:06:32;100571.06;;;4.81;100.00
30636;BME280;17400;52.392;9.750;2022-12-07T12:09:05;100571.28;;;4.96;100.00
30636;BME280;17400;52.392;9.750;2022-12-07T12:12:11;100563.94;;;5.06;100.00
30636;BME280;17400;52.392;9.750;2022-12-07T12:15:20;100549.69;;;5.06;100.00
30636;BME280;17400;52.392;9.750;2022-12-07T12:18:05;100559.59;;;5.13;100.00
30636;BME280;17400;52.392;9.750;2022-12-07T12:20:41;100561.78;;;5.18;100.00
30636;BME280;17400;52.392;9.750;2022-12-07T12:23:13;100548.53;;;5.16;100.00
30636;BME280;17400;52.392;9.750;2022-12-07T12:25:45;100554.53;;;5.18;100.00
30636;BME280;17400;52.392;9.750;2022-12-07T12:28:27;100552.38;;;5.14;100.00
30636;BME280;17400;52.392;9.750;2022-12-07T12:31:11;100548.00;;;5.21;100.00
30636;BME280;17400;52.392;9.750;2022-12-07T12:33:44;100545.31;;;5.21;100.00
30636;BME280;17400;52.392;9.750;2022-12-07T12:36:24;100543.84;;;5.27;100.00
30636;BME280;17400;52.392;9.750;2022-12-07T12:39:10;100543.31;;;5.40;100.00
30636;BME280;17400;52.392;9.750;2022-12-07T12:41:57;100539.16;;;5.54;100.00
30636;BME280;17400;52.392;9.750;2022-12-07T12:45:03;100539.31;;;5.44;100.00
30636;BME280;17400;52.392;9.750;2022-12-07T12:48:09;100532.41;;;5.25;100.00
30636;BME280;17400;52.392;9.750;2022-12-07T12:51:36;100530.03;;;5.05;100.00
30636;BME280;17400;52.392;9.750;2022-12-07T12:54:08;100541.47;;;4.99;100.00
30636;BME280;17400;52.392;9.750;2022-12-07T12:56:41;100538.94;;;4.97;100.00
30636;BME280;17400;52.392;9.750;2022-12-07T12:59:22;100535.06;;;4.92;100.00
30636;BME280;17400;52.392;9.750;2022-12-07T13:01:52;100522.97;;;4.79;100.00
30636;BME280;17400;52.392;9.750;2022-12-07T13:04:34;100531.00;;;4.79;100.00
30636;BME280;17400;52.392;9.750;2022-12-07T13:07:03;100533.72;;;4.88;100.00
30636;BME280;17400;52.392;9.750;2022-12-07T13:09:33;100526.00;;;4.93;100.00
30636;BME280;17400;52.392;9.750;2022-12-07T13:12:04;100522.34;;;5.02;100.00
30636;BME280;17400;52.392;9.750;2022-12-07T13:14:54;100522.34;;;5.10;100.00
30636;BME280;17400;52.392;9.750;2022-12-07T13:20:49;100528.06;;;5.07;100.00
30636;BME280;17400;52.392;9.750;2022-12-07T13:23:29;100516.31;;;5.08;100.00